Ruby Indah — 9VND — position and weather

sailwx.info

Track history (hours):
 
Tides and Currents Weather Stations Pressure Air Temp Water Temp Dewpoint Dewpoint Depression Visibility Wind Speed Wind Dir Waves Ship Positions

Ruby Indah

Last reported at 2015-Jun-07 08:32 UTC. Time now 2015-Sep-03 12:54 UTC.
Position N 48°33' W 127°17'.
Warning: this ship's position is months out of date.

Length 229 m; draft 12.8 m.

Type: Cargo ship. MMSI: 564748000.

Date/timePositionNaut miles runAvg speedWind from/ knotsBaromVisibWave heightAir tempDewpointWater temp
2015-Jun-07 08:32N 48°33' W 127°17'12 9.4
2015-Jun-07 07:19N 48°32' W 126°60'8 9.1
2015-Jun-07 06:26N 48°31' W 126°48'9 8.9
2015-Jun-07 05:23N 48°31' W 126°34'7 8.6
2015-Jun-07 04:33N 48°31' W 126°23'9 8.8
2015-Jun-07 03:33N 48°31' W 126°10'9 9.1
2015-Jun-07 02:33N 48°31' W 125°56'9 9.2
2015-Jun-07 01:33N 48°31' W 125°42'9 9.3
2015-Jun-07 00:33N 48°30' W 125°28'10 9.6
2015-Jun-06 23:33N 48°31' W 125°13'9 9.4
2015-Jun-06 22:33N 48°31' W 124°59'4510.8
2015-Jun-06 18:21N 48°18' W 123°54'1012.4
2015-Jun-06 17:33N 48°16' W 123°39'1010.6
2015-Jun-06 16:33N 48°22' W 123°25'10 9.6
2015-Jun-06 15:33N 48°25' W 123°12'1211.8
2015-Jun-06 14:33N 48°37' W 123°14'9 8.7
2015-Jun-06 13:33N 48°45' W 123°08'7 7.4
2015-Jun-06 12:33N 48°52' W 123°04'1110.9
2015-Jun-06 11:33N 48°59' W 123°16'1010.0
2015-Jun-06 10:33N 49°08' W 123°23'1010.3
2015-Jun-06 09:33N 49°18' W 123°19'9 9.0
2015-Jun-06 08:33N 49°18' W 123°05'1 0.6
2015-Jun-06 07:31N 49°18' W 123°04'0 0.0
2015-Jun-06 06:31N 49°18' W 123°04'0 0.0
2015-Jun-06 05:31N 49°18' W 123°04'0 0.0
2015-Jun-06 04:31N 49°18' W 123°04'0 0.0
2015-Jun-06 03:31N 49°18' W 123°04'0 0.0
2015-Jun-06 02:31N 49°18' W 123°04'0 0.0
2015-Jun-06 01:31N 49°18' W 123°04'0 0.0
2015-Jun-06 00:30N 49°18' W 123°04'0 0.0
2015-Jun-05 23:33N 49°18' W 123°04'0 0.0
2015-Jun-05 22:33N 49°18' W 123°04'0 0.0
2015-Jun-05 21:33N 49°18' W 123°04'0 0.0
2015-Jun-05 20:33N 49°18' W 123°04'0 0.0
2015-Jun-05 19:33N 49°18' W 123°04'0 0.0
2015-Jun-05 18:33N 49°18' W 123°04'0 0.0
2015-Jun-05 17:33N 49°18' W 123°04'0 0.0
2015-Jun-05 16:33N 49°18' W 123°04'0 0.0
2015-Jun-05 15:33N 49°18' W 123°04'0 0.0
2015-Jun-05 14:33N 49°18' W 123°04'0 0.0
2015-Jun-05 13:33N 49°18' W 123°04'0 0.0
2015-Jun-05 12:33N 49°18' W 123°04'0 0.0
2015-Jun-05 11:30N 49°18' W 123°04'0 0.0
2015-Jun-05 10:33N 49°18' W 123°04'0 0.0
2015-Jun-05 09:33N 49°18' W 123°04'0 0.0
2015-Jun-05 08:33N 49°18' W 123°04'0 0.0
2015-Jun-05 07:33N 49°18' W 123°04'0 0.0
2015-Jun-05 06:33N 49°18' W 123°04'0 0.0
2015-Jun-05 05:33N 49°18' W 123°04'0 0.0
2015-Jun-05 04:33N 49°18' W 123°04'0 0.0
2015-Jun-05 03:33N 49°18' W 123°04'0 0.0
2015-Jun-05 02:33N 49°18' W 123°04'0 0.0
2015-Jun-05 01:33N 49°18' W 123°04'0 0.0
2015-Jun-05 00:33N 49°18' W 123°04'0 0.0
2015-Jun-04 23:33N 49°18' W 123°04'0 0.0
2015-Jun-04 22:33N 49°18' W 123°04'0 0.0
2015-Jun-04 21:33N 49°18' W 123°04'0 0.0
2015-Jun-04 20:33N 49°18' W 123°04'0 0.0
2015-Jun-04 19:33N 49°18' W 123°04'0 0.0
2015-Jun-04 18:33N 49°18' W 123°04'0 0.0
2015-Jun-04 17:33N 49°18' W 123°04'0 0.0
2015-Jun-04 16:33N 49°18' W 123°04'0 0.0
2015-Jun-04 15:33N 49°18' W 123°04'0 0.0
2015-Jun-04 14:32N 49°18' W 123°04'0 0.0
2015-Jun-04 13:32N 49°18' W 123°04'0 0.0
2015-Jun-04 12:32N 49°18' W 123°04'0 0.0
2015-Jun-04 11:32N 49°18' W 123°04'0 0.0
2015-Jun-04 10:32N 49°18' W 123°04'0 0.0
2015-Jun-04 09:32N 49°18' W 123°04'0 0.0
2015-Jun-04 08:32N 49°18' W 123°04'0 0.0
2015-Jun-04 07:32N 49°18' W 123°04'0 0.0
2015-Jun-04 06:32N 49°18' W 123°04'0 0.0
2015-Jun-04 05:32N 49°18' W 123°04'0 0.0
2015-Jun-04 04:32N 49°18' W 123°04'0 0.0
2015-Jun-04 03:32N 49°18' W 123°04'0 0.0
2015-Jun-04 02:32N 49°18' W 123°04'0 0.0
2015-Jun-04 01:32N 49°18' W 123°04'0 0.0
2015-Jun-04 00:32N 49°18' W 123°04'0 0.0
2015-Jun-03 23:32N 49°18' W 123°04'0 0.0
2015-Jun-03 22:32N 49°18' W 123°04'0 0.0
2015-Jun-03 21:32N 49°18' W 123°04'0 0.0
2015-Jun-03 20:32N 49°18' W 123°04'0 0.0
2015-Jun-03 19:32N 49°18' W 123°04'0 0.0
2015-Jun-03 18:32N 49°18' W 123°04'0 0.0
2015-Jun-03 17:32N 49°18' W 123°04'0 0.0
2015-Jun-03 16:32N 49°18' W 123°04'0 0.0
2015-Jun-03 15:32N 49°18' W 123°04'0 0.0
2015-Jun-03 14:32N 49°18' W 123°04'0 0.0
2015-Jun-03 13:32N 49°18' W 123°04'0 0.0
2015-Jun-03 12:32N 49°18' W 123°04'0 0.0
2015-Jun-03 11:32N 49°18' W 123°04'0 0.0
2015-Jun-03 10:32N 49°18' W 123°04'0 0.0
2015-Jun-03 09:32N 49°18' W 123°04'0 0.0
2015-Jun-03 08:32N 49°18' W 123°04'0 0.0
2015-Jun-03 07:32N 49°18' W 123°04'0 0.0
2015-Jun-03 06:31N 49°18' W 123°04'0 0.0
2015-Jun-03 05:31N 49°18' W 123°04'0 0.0
2015-Jun-03 04:28N 49°18' W 123°04'0 0.0
2015-Jun-03 03:31N 49°18' W 123°04'0 0.0
2015-Jun-03 02:31N 49°18' W 123°04'0 0.4
2015-Jun-03 01:33N 49°18' W 123°05'4 3.9
2015-Jun-03 00:33N 49°19' W 123°10'1 0.7
2015-Jun-02 23:33N 49°18' W 123°11'0 0.1
2015-Jun-02 22:33N 49°18' W 123°11'0 0.1
2015-Jun-02 21:33N 49°18' W 123°11'0 0.0
2015-Jun-02 20:33N 49°18' W 123°11'0 0.0
2015-Jun-02 19:32N 49°18' W 123°11'0 0.0
2015-Jun-02 18:32N 49°18' W 123°11'0 0.0
2015-Jun-02 17:32N 49°18' W 123°11'0 0.2
2015-Jun-02 16:32N 49°18' W 123°11'0 0.0
2015-Jun-02 15:32N 49°18' W 123°11'0 0.0
2015-Jun-02 14:32N 49°18' W 123°11'0 0.0
2015-Jun-02 13:32N 49°18' W 123°11'0 0.0
2015-Jun-02 12:32N 49°18' W 123°11'0 0.0
2015-Jun-02 11:32N 49°18' W 123°11'0 0.0
2015-Jun-02 10:32N 49°18' W 123°11'0 0.0
2015-Jun-02 09:32N 49°18' W 123°11'0 0.1
2015-Jun-02 08:32N 49°18' W 123°11'0 0.0
2015-Jun-02 07:32N 49°18' W 123°11'0 0.0
2015-Jun-02 06:32N 49°18' W 123°11'0 0.0
2015-Jun-02 05:32N 49°18' W 123°11'0 0.0
2015-Jun-02 04:32N 49°18' W 123°11'0 0.1
2015-Jun-02 03:32N 49°18' W 123°11'0 0.1
2015-Jun-02 02:32N 49°18' W 123°11'0 0.1
2015-Jun-02 01:32N 49°18' W 123°11'0 0.0
2015-Jun-02 00:32N 49°18' W 123°11'0 0.0
2015-Jun-01 23:32N 49°18' W 123°11'0 0.1
2015-Jun-01 22:32N 49°18' W 123°11'0 0.1
2015-Jun-01 21:32N 49°19' W 123°11'0 0.0
2015-Jun-01 20:32N 49°19' W 123°11'0 0.0
2015-Jun-01 19:32N 49°18' W 123°11'0 0.0
2015-Jun-01 18:32N 49°19' W 123°11'0 0.1
2015-Jun-01 17:32N 49°19' W 123°11'0 0.0
2015-Jun-01 16:32N 49°19' W 123°11'0 0.2
2015-Jun-01 15:32N 49°18' W 123°11'0 0.0
2015-Jun-01 14:29N 49°18' W 123°11'0 0.1
2015-Jun-01 13:32N 49°18' W 123°11'0 0.1
2015-Jun-01 12:29N 49°18' W 123°11'0 0.1
2015-Jun-01 11:32N 49°18' W 123°11'0 0.1
2015-Jun-01 10:31N 49°18' W 123°11'0 0.0
2015-Jun-01 09:31N 49°18' W 123°11'0 0.0
2015-Jun-01 08:31N 49°18' W 123°11'0 0.0
2015-Jun-01 07:31N 49°18' W 123°11'0 0.1
2015-Jun-01 06:31N 49°18' W 123°11'0 0.0
2015-Jun-01 05:28N 49°18' W 123°11'0 0.1
2015-Jun-01 02:31N 49°18' W 123°11'0 0.0
2015-Jun-01 01:28N 49°18' W 123°11'0 0.0
2015-Jun-01 00:31N 49°18' W 123°11'0 0.0
2015-May-31 23:31N 49°18' W 123°11'0 0.0
2015-May-31 22:31N 49°18' W 123°11'0 0.0
2015-May-31 21:31N 49°18' W 123°11'0 0.0
2015-May-31 20:31N 49°18' W 123°11'0 0.0
2015-May-31 19:31N 49°18' W 123°11'0 0.0
2015-May-31 18:31N 49°19' W 123°11'0 0.0
2015-May-31 17:31N 49°19' W 123°11'0 0.1
2015-May-31 16:31N 49°18' W 123°11'0 0.2
2015-May-31 15:31N 49°18' W 123°11'0 0.0
2015-May-31 14:31N 49°18' W 123°12'0 0.1
2015-May-31 13:31N 49°18' W 123°12'0 0.5
2015-May-31 12:34N 49°18' W 123°12'7 7.1
2015-May-31 11:33N 49°13' W 123°19'1111.1
2015-May-31 10:33N 49°02' W 123°17'1212.0
2015-May-31 09:33N 48°53' W 123°04'9 8.9
2015-May-31 08:33N 48°44' W 123°07'10 9.7
2015-May-31 07:33N 48°36' W 123°13'1111.0
2015-May-31 06:33N 48°25' W 123°12'10 9.9
2015-May-31 05:33N 48°19' W 123°24'8 7.7
2015-May-31 04:32N 48°13' W 123°32'7 6.7
2015-May-31 03:32N 48°13' W 123°42'1010.7
2015-May-31 02:33N 48°14' W 123°58'1110.9
2015-May-31 01:33N 48°19' W 124°13'1111.0
2015-May-31 00:33N 48°23' W 124°28'1110.9
2015-May-30 23:33N 48°28' W 124°43'1211.5
2015-May-30 22:33N 48°28' W 124°60'1212.2
2015-May-30 21:33N 48°29' W 125°18'9 8.8
2015-May-30 20:33N 48°28' W 125°32'1212.1
2015-May-30 19:33N 48°29' W 125°50'1212.1
2015-May-30 18:33N 48°29' W 126°08'1411.9
2015-May-30 17:24N 48°29' W 126°29'  
Track history (hours):
 
Tides and Currents Weather Stations Pressure Air Temp Water Temp Dewpoint Dewpoint Depression Visibility Wind Speed Wind Dir Waves Ship Positions

Ruby Indah

Last reported at 2015-Jun-07 08:32 UTC. Time now 2015-Sep-03 12:54 UTC.
Position N 48°33' W 127°17'.
Warning: this ship's position is months out of date.

Length 229 m; draft 12.8 m.

Type: Cargo ship. MMSI: 564748000.

Date/timePositionNaut miles runAvg speedWind from/ knotsBaromVisibWave heightAir tempDewpointWater temp
2015-Jun-07 08:32N 48°33' W 127°17'12 9.4
2015-Jun-07 07:19N 48°32' W 126°60'8 9.1
2015-Jun-07 06:26N 48°31' W 126°48'9 8.9
2015-Jun-07 05:23N 48°31' W 126°34'7 8.6
2015-Jun-07 04:33N 48°31' W 126°23'9 8.8
2015-Jun-07 03:33N 48°31' W 126°10'9 9.1
2015-Jun-07 02:33N 48°31' W 125°56'9 9.2
2015-Jun-07 01:33N 48°31' W 125°42'9 9.3
2015-Jun-07 00:33N 48°30' W 125°28'10 9.6
2015-Jun-06 23:33N 48°31' W 125°13'9 9.4
2015-Jun-06 22:33N 48°31' W 124°59'4510.8
2015-Jun-06 18:21N 48°18' W 123°54'1012.4
2015-Jun-06 17:33N 48°16' W 123°39'1010.6
2015-Jun-06 16:33N 48°22' W 123°25'10 9.6
2015-Jun-06 15:33N 48°25' W 123°12'1211.8
2015-Jun-06 14:33N 48°37' W 123°14'9 8.7
2015-Jun-06 13:33N 48°45' W 123°08'7 7.4
2015-Jun-06 12:33N 48°52' W 123°04'1110.9
2015-Jun-06 11:33N 48°59' W 123°16'1010.0
2015-Jun-06 10:33N 49°08' W 123°23'1010.3
2015-Jun-06 09:33N 49°18' W 123°19'9 9.0
2015-Jun-06 08:33N 49°18' W 123°05'1 0.6
2015-Jun-06 07:31N 49°18' W 123°04'0 0.0
2015-Jun-06 06:31N 49°18' W 123°04'0 0.0
2015-Jun-06 05:31N 49°18' W 123°04'0 0.0
2015-Jun-06 04:31N 49°18' W 123°04'0 0.0
2015-Jun-06 03:31N 49°18' W 123°04'0 0.0
2015-Jun-06 02:31N 49°18' W 123°04'0 0.0
2015-Jun-06 01:31N 49°18' W 123°04'0 0.0
2015-Jun-06 00:30N 49°18' W 123°04'0 0.0
2015-Jun-05 23:33N 49°18' W 123°04'0 0.0
2015-Jun-05 22:33N 49°18' W 123°04'0 0.0
2015-Jun-05 21:33N 49°18' W 123°04'0 0.0
2015-Jun-05 20:33N 49°18' W 123°04'0 0.0
2015-Jun-05 19:33N 49°18' W 123°04'0 0.0
2015-Jun-05 18:33N 49°18' W 123°04'0 0.0
2015-Jun-05 17:33N 49°18' W 123°04'0 0.0
2015-Jun-05 16:33N 49°18' W 123°04'0 0.0
2015-Jun-05 15:33N 49°18' W 123°04'0 0.0
2015-Jun-05 14:33N 49°18' W 123°04'0 0.0
2015-Jun-05 13:33N 49°18' W 123°04'0 0.0
2015-Jun-05 12:33N 49°18' W 123°04'0 0.0
2015-Jun-05 11:30N 49°18' W 123°04'0 0.0
2015-Jun-05 10:33N 49°18' W 123°04'0 0.0
2015-Jun-05 09:33N 49°18' W 123°04'0 0.0
2015-Jun-05 08:33N 49°18' W 123°04'0 0.0
2015-Jun-05 07:33N 49°18' W 123°04'0 0.0
2015-Jun-05 06:33N 49°18' W 123°04'0 0.0
2015-Jun-05 05:33N 49°18' W 123°04'0 0.0
2015-Jun-05 04:33N 49°18' W 123°04'0 0.0
2015-Jun-05 03:33N 49°18' W 123°04'0 0.0
2015-Jun-05 02:33N 49°18' W 123°04'0 0.0
2015-Jun-05 01:33N 49°18' W 123°04'0 0.0
2015-Jun-05 00:33N 49°18' W 123°04'0 0.0
2015-Jun-04 23:33N 49°18' W 123°04'0 0.0
2015-Jun-04 22:33N 49°18' W 123°04'0 0.0
2015-Jun-04 21:33N 49°18' W 123°04'0 0.0
2015-Jun-04 20:33N 49°18' W 123°04'0 0.0
2015-Jun-04 19:33N 49°18' W 123°04'0 0.0
2015-Jun-04 18:33N 49°18' W 123°04'0 0.0
2015-Jun-04 17:33N 49°18' W 123°04'0 0.0
2015-Jun-04 16:33N 49°18' W 123°04'0 0.0
2015-Jun-04 15:33N 49°18' W 123°04'0 0.0
2015-Jun-04 14:32N 49°18' W 123°04'0 0.0
2015-Jun-04 13:32N 49°18' W 123°04'0 0.0
2015-Jun-04 12:32N 49°18' W 123°04'0 0.0
2015-Jun-04 11:32N 49°18' W 123°04'0 0.0
2015-Jun-04 10:32N 49°18' W 123°04'0 0.0
2015-Jun-04 09:32N 49°18' W 123°04'0 0.0
2015-Jun-04 08:32N 49°18' W 123°04'0 0.0
2015-Jun-04 07:32N 49°18' W 123°04'0 0.0
2015-Jun-04 06:32N 49°18' W 123°04'0 0.0
2015-Jun-04 05:32N 49°18' W 123°04'0 0.0
2015-Jun-04 04:32N 49°18' W 123°04'0 0.0
2015-Jun-04 03:32N 49°18' W 123°04'0 0.0
2015-Jun-04 02:32N 49°18' W 123°04'0 0.0
2015-Jun-04 01:32N 49°18' W 123°04'0 0.0
2015-Jun-04 00:32N 49°18' W 123°04'0 0.0
2015-Jun-03 23:32N 49°18' W 123°04'0 0.0
2015-Jun-03 22:32N 49°18' W 123°04'0 0.0
2015-Jun-03 21:32N 49°18' W 123°04'0 0.0
2015-Jun-03 20:32N 49°18' W 123°04'0 0.0
2015-Jun-03 19:32N 49°18' W 123°04'0 0.0
2015-Jun-03 18:32N 49°18' W 123°04'0 0.0
2015-Jun-03 17:32N 49°18' W 123°04'0 0.0
2015-Jun-03 16:32N 49°18' W 123°04'0 0.0
2015-Jun-03 15:32N 49°18' W 123°04'0 0.0
2015-Jun-03 14:32N 49°18' W 123°04'0 0.0
2015-Jun-03 13:32N 49°18' W 123°04'0 0.0
2015-Jun-03 12:32N 49°18' W 123°04'0 0.0
2015-Jun-03 11:32N 49°18' W 123°04'0 0.0
2015-Jun-03 10:32N 49°18' W 123°04'0 0.0
2015-Jun-03 09:32N 49°18' W 123°04'0 0.0
2015-Jun-03 08:32N 49°18' W 123°04'0 0.0
2015-Jun-03 07:32N 49°18' W 123°04'0 0.0
2015-Jun-03 06:31N 49°18' W 123°04'0 0.0
2015-Jun-03 05:31N 49°18' W 123°04'0 0.0
2015-Jun-03 04:28N 49°18' W 123°04'0 0.0
2015-Jun-03 03:31N 49°18' W 123°04'0 0.0
2015-Jun-03 02:31N 49°18' W 123°04'0 0.4
2015-Jun-03 01:33N 49°18' W 123°05'4 3.9
2015-Jun-03 00:33N 49°19' W 123°10'1 0.7
2015-Jun-02 23:33N 49°18' W 123°11'0 0.1
2015-Jun-02 22:33N 49°18' W 123°11'0 0.1
2015-Jun-02 21:33N 49°18' W 123°11'0 0.0
2015-Jun-02 20:33N 49°18' W 123°11'0 0.0
2015-Jun-02 19:32N 49°18' W 123°11'0 0.0
2015-Jun-02 18:32N 49°18' W 123°11'0 0.0
2015-Jun-02 17:32N 49°18' W 123°11'0 0.2
2015-Jun-02 16:32N 49°18' W 123°11'0 0.0
2015-Jun-02 15:32N 49°18' W 123°11'0 0.0
2015-Jun-02 14:32N 49°18' W 123°11'0 0.0
2015-Jun-02 13:32N 49°18' W 123°11'0 0.0
2015-Jun-02 12:32N 49°18' W 123°11'0 0.0
2015-Jun-02 11:32N 49°18' W 123°11'0 0.0
2015-Jun-02 10:32N 49°18' W 123°11'0 0.0
2015-Jun-02 09:32N 49°18' W 123°11'0 0.1
2015-Jun-02 08:32N 49°18' W 123°11'0 0.0
2015-Jun-02 07:32N 49°18' W 123°11'0 0.0
2015-Jun-02 06:32N 49°18' W 123°11'0 0.0
2015-Jun-02 05:32N 49°18' W 123°11'0 0.0
2015-Jun-02 04:32N 49°18' W 123°11'0 0.1
2015-Jun-02 03:32N 49°18' W 123°11'0 0.1
2015-Jun-02 02:32N 49°18' W 123°11'0 0.1
2015-Jun-02 01:32N 49°18' W 123°11'0 0.0
2015-Jun-02 00:32N 49°18' W 123°11'0 0.0
2015-Jun-01 23:32N 49°18' W 123°11'0 0.1
2015-Jun-01 22:32N 49°18' W 123°11'0 0.1
2015-Jun-01 21:32N 49°19' W 123°11'0 0.0
2015-Jun-01 20:32N 49°19' W 123°11'0 0.0
2015-Jun-01 19:32N 49°18' W 123°11'0 0.0
2015-Jun-01 18:32N 49°19' W 123°11'0 0.1
2015-Jun-01 17:32N 49°19' W 123°11'0 0.0
2015-Jun-01 16:32N 49°19' W 123°11'0 0.2
2015-Jun-01 15:32N 49°18' W 123°11'0 0.0
2015-Jun-01 14:29N 49°18' W 123°11'0 0.1
2015-Jun-01 13:32N 49°18' W 123°11'0 0.1
2015-Jun-01 12:29N 49°18' W 123°11'0 0.1
2015-Jun-01 11:32N 49°18' W 123°11'0 0.1
2015-Jun-01 10:31N 49°18' W 123°11'0 0.0
2015-Jun-01 09:31N 49°18' W 123°11'0 0.0
2015-Jun-01 08:31N 49°18' W 123°11'0 0.0
2015-Jun-01 07:31N 49°18' W 123°11'0 0.1
2015-Jun-01 06:31N 49°18' W 123°11'0 0.0
2015-Jun-01 05:28N 49°18' W 123°11'0 0.1
2015-Jun-01 02:31N 49°18' W 123°11'0 0.0
2015-Jun-01 01:28N 49°18' W 123°11'0 0.0
2015-Jun-01 00:31N 49°18' W 123°11'0 0.0
2015-May-31 23:31N 49°18' W 123°11'0 0.0
2015-May-31 22:31N 49°18' W 123°11'0 0.0
2015-May-31 21:31N 49°18' W 123°11'0 0.0
2015-May-31 20:31N 49°18' W 123°11'0 0.0
2015-May-31 19:31N 49°18' W 123°11'0 0.0
2015-May-31 18:31N 49°19' W 123°11'0 0.0
2015-May-31 17:31N 49°19' W 123°11'0 0.1
2015-May-31 16:31N 49°18' W 123°11'0 0.2
2015-May-31 15:31N 49°18' W 123°11'0 0.0
2015-May-31 14:31N 49°18' W 123°12'0 0.1
2015-May-31 13:31N 49°18' W 123°12'0 0.5
2015-May-31 12:34N 49°18' W 123°12'7 7.1
2015-May-31 11:33N 49°13' W 123°19'1111.1
2015-May-31 10:33N 49°02' W 123°17'1212.0
2015-May-31 09:33N 48°53' W 123°04'9 8.9
2015-May-31 08:33N 48°44' W 123°07'10 9.7
2015-May-31 07:33N 48°36' W 123°13'1111.0
2015-May-31 06:33N 48°25' W 123°12'10 9.9
2015-May-31 05:33N 48°19' W 123°24'8 7.7
2015-May-31 04:32N 48°13' W 123°32'7 6.7
2015-May-31 03:32N 48°13' W 123°42'1010.7
2015-May-31 02:33N 48°14' W 123°58'1110.9
2015-May-31 01:33N 48°19' W 124°13'1111.0
2015-May-31 00:33N 48°23' W 124°28'1110.9
2015-May-30 23:33N 48°28' W 124°43'1211.5
2015-May-30 22:33N 48°28' W 124°60'1212.2
2015-May-30 21:33N 48°29' W 125°18'9 8.8
2015-May-30 20:33N 48°28' W 125°32'1212.1
2015-May-30 19:33N 48°29' W 125°50'1212.1
2015-May-30 18:33N 48°29' W 126°08'1411.9
2015-May-30 17:24N 48°29' W 126°29'  

Dump ship's entire track history